Time;durP1;ratioP1;P1;durP2;ratioP2;P2;SDS_P1;SDS_P2;PMS_P1;PMS_P2;Temp;Humidity;BMP_temperature;BMP_pressure;BME280_temperature;BME280_humidity;BME280_pressure;Samples;Min_cycle;Max_cycle;Signal;HPM_P1;HPM_P2
2022/03/14 00:01:47;;;;;;;15.82;10.40;;;10.00;93.20;;;;;;5093262;28;20065;-85
2022/03/14 00:04:13;;;;;;;17.40;10.45;;;10.00;93.20;;;;;;5075057;28;20028;-86
2022/03/14 00:06:38;;;;;;;14.88;9.50;;;10.00;93.20;;;;;;5075074;28;20024;-85
2022/03/14 00:09:07;;;;;;;14.98;9.82;;;10.00;93.30;;;;;;5093193;28;20043;-86
2022/03/14 00:11:36;;;;;;;15.65;9.82;;;10.00;93.30;;;;;;5093092;28;20024;-85
2022/03/14 00:14:06;;;;;;;15.27;9.90;;;10.00;93.30;;;;;;5074997;28;20028;-86
2022/03/14 00:16:39;;;;;;;17.23;9.77;;;10.00;93.30;;;;;;5093429;28;20048;-86
2022/03/14 00:19:06;;;;;;;13.73;9.95;;;10.00;93.30;;;;;;5092858;28;20020;-85
2022/03/14 00:21:35;;;;;;;17.05;11.05;;;10.00;93.30;;;;;;5074939;28;20072;-85
2022/03/14 00:24:01;;;;;;;16.30;10.02;;;10.00;93.40;;;;;;5093023;28;20012;-86
2022/03/14 00:26:27;;;;;;;16.00;10.18;;;10.00;93.40;;;;;;5074975;28;20027;-85
2022/03/14 00:28:53;;;;;;;15.77;10.07;;;10.00;93.40;;;;;;5092977;28;20024;-86
2022/03/14 00:31:20;;;;;;;16.67;10.57;;;10.00;93.40;;;;;;5074784;28;20032;-86
2022/03/14 00:33:45;;;;;;;18.27;11.05;;;10.00;93.40;;;;;;5074920;28;20024;-85
2022/03/14 00:36:11;;;;;;;15.25;10.30;;;10.00;93.40;;;;;;5093007;28;20394;-86
2022/03/14 00:38:40;;;;;;;15.07;9.77;;;10.00;93.40;;;;;;5074844;28;20042;-85
2022/03/14 00:41:07;;;;;;;16.17;10.13;;;9.90;93.40;;;;;;5075336;28;20463;-86
2022/03/14 00:43:34;;;;;;;14.77;9.73;;;10.00;93.40;;;;;;5074656;28;20027;-85
2022/03/14 00:46:00;;;;;;;15.07;10.07;;;9.90;93.40;;;;;;5074661;28;20083;-86
2022/03/14 00:48:26;;;;;;;17.10;10.13;;;10.00;93.50;;;;;;5092637;28;20020;-85
2022/03/14 00:50:53;;;;;;;14.25;9.85;;;10.00;93.50;;;;;;5074858;28;20105;-86
2022/03/14 00:53:19;;;;;;;14.98;9.77;;;10.00;93.50;;;;;;5074610;28;20031;-86
2022/03/14 00:55:45;;;;;;;15.98;10.00;;;9.90;93.60;;;;;;5092972;28;20024;-86
2022/03/14 00:58:11;;;;;;;14.50;10.27;;;9.90;93.60;;;;;;5092957;28;20471;-86
2022/03/14 01:00:38;;;;;;;16.60;10.20;;;9.90;93.60;;;;;;5074479;28;20036;-86
2022/03/14 01:03:04;;;;;;;16.35;10.20;;;9.90;93.60;;;;;;5094925;28;20031;-85
2022/03/14 01:05:29;;;;;;;15.82;10.05;;;9.90;93.60;;;;;;5078456;28;20024;-86
2022/03/14 01:07:55;;;;;;;17.08;10.88;;;9.90;93.60;;;;;;5096856;28;20043;-85
2022/03/14 01:10:22;;;;;;;15.65;9.63;;;9.90;93.60;;;;;;5096897;28;20103;-85
2022/03/14 01:12:48;;;;;;;14.68;10.32;;;9.90;93.70;;;;;;5096430;28;20391;-85
2022/03/14 01:15:14;;;;;;;16.48;10.80;;;9.90;93.70;;;;;;5078152;28;20020;-86
2022/03/14 01:17:40;;;;;;;13.93;9.30;;;9.90;93.80;;;;;;5078049;28;20111;-86
2022/03/14 01:20:08;;;;;;;13.57;9.48;;;9.90;93.80;;;;;;5077747;28;20525;-85
2022/03/14 01:22:35;;;;;;;13.10;9.55;;;9.90;93.80;;;;;;5078078;28;20020;-85
2022/03/14 01:25:02;;;;;;;16.88;9.50;;;9.90;93.90;;;;;;5077944;28;20024;-86
2022/03/14 01:27:28;;;;;;;13.25;9.48;;;9.90;94.00;;;;;;5096165;28;20039;-86
2022/03/14 01:29:55;;;;;;;14.02;9.50;;;9.90;94.20;;;;;;5077948;28;20483;-86
2022/03/14 01:32:21;;;;;;;15.98;9.18;;;9.90;94.20;;;;;;5096577;28;20031;-86
2022/03/14 01:34:46;;;;;;;12.90;8.90;;;9.90;94.20;;;;;;5077956;28;20479;-86
2022/03/14 01:37:12;;;;;;;13.73;8.75;;;9.90;94.10;;;;;;5077831;28;20024;-86
2022/03/14 01:39:38;;;;;;;14.55;9.40;;;9.90;94.20;;;;;;5077640;28;20024;-86
2022/03/14 01:42:04;;;;;;;14.75;9.02;;;9.90;94.50;;;;;;5096126;28;20095;-86
2022/03/14 01:44:30;;;;;;;13.25;8.98;;;9.90;94.50;;;;;;5095856;28;20047;-87
2022/03/14 01:46:57;;;;;;;12.27;8.75;;;9.90;94.60;;;;;;5077577;28;20044;-86
2022/03/14 01:49:23;;;;;;;13.15;9.02;;;9.90;94.50;;;;;;5077520;28;20028;-86
2022/03/14 01:51:52;;;;;;;12.90;9.50;;;9.90;94.60;;;;;;5077519;28;20468;-86
2022/03/14 01:54:18;;;;;;;12.20;8.77;;;9.80;94.70;;;;;;5095671;28;20085;-85
2022/03/14 01:56:45;;;;;;;13.05;8.80;;;9.90;94.80;;;;;;5095613;28;20096;-86
2022/03/14 01:59:11;;;;;;;14.57;9.93;;;9.90;94.90;;;;;;5077412;28;20552;-86
2022/03/14 02:01:36;;;;;;;14.52;8.85;;;9.80;95.00;;;;;;5077275;28;20020;-86
2022/03/14 02:04:03;;;;;;;13.13;9.15;;;9.90;95.20;;;;;;5077282;28;20133;-85
2022/03/14 02:06:28;;;;;;;15.25;9.07;;;9.80;95.40;;;;;;5077355;28;20032;-85
2022/03/14 02:08:55;;;;;;;13.05;8.85;;;9.90;95.80;;;;;;5077252;28;20024;-86
2022/03/14 02:11:21;;;;;;;12.80;8.70;;;9.80;95.60;;;;;;5077212;28;20059;-86
2022/03/14 02:13:47;;;;;;;12.57;8.65;;;9.80;95.70;;;;;;5094990;28;20475;-86
2022/03/14 02:16:12;;;;;;;12.02;8.35;;;9.90;95.60;;;;;;5095244;28;20033;-86
2022/03/14 02:18:38;;;;;;;11.90;7.65;;;9.80;95.30;;;;;;5076897;28;20054;-86
2022/03/14 02:21:06;;;;;;;11.82;7.78;;;9.80;95.20;;;;;;5094839;28;20044;-86
2022/03/14 02:23:32;;;;;;;11.70;8.35;;;9.80;95.40;;;;;;5095078;28;20030;-86
2022/03/14 02:25:57;;;;;;;13.65;8.35;;;9.80;95.40;;;;;;5095351;28;20020;-85
2022/03/14 02:28:23;;;;;;;11.15;7.50;;;9.90;95.50;;;;;;5077004;28;20406;-85
2022/03/14 02:30:50;;;;;;;9.77;7.28;;;9.80;95.40;;;;;;5076841;28;20032;-85
2022/03/14 02:33:16;;;;;;;10.20;7.88;;;9.80;95.40;;;;;;5095143;28;20028;-85
2022/03/14 02:35:42;;;;;;;11.27;7.95;;;9.80;95.70;;;;;;5076672;28;20390;-85
2022/03/14 02:38:11;;;;;;;9.18;6.93;;;9.80;95.50;;;;;;5076593;28;20081;-85
2022/03/14 02:40:39;;;;;;;9.32;7.35;;;9.80;96.00;;;;;;5076490;28;20035;-85
2022/03/14 02:43:05;;;;;;;10.10;6.90;;;9.80;96.10;;;;;;5076482;28;20020;-85
2022/03/14 02:45:32;;;;;;;10.43;6.88;;;9.80;96.10;;;;;;5094610;28;20016;-85
2022/03/14 02:47:58;;;;;;;11.48;7.10;;;9.80;96.00;;;;;;5094817;28;20542;-85
2022/03/14 02:50:24;;;;;;;9.48;7.00;;;9.80;96.30;;;;;;5076350;28;20032;-85
2022/03/14 02:52:50;;;;;;;9.05;6.78;;;9.80;96.60;;;;;;5076289;28;20114;-85
2022/03/14 02:55:20;;;;;;;9.40;6.85;;;9.80;96.50;;;;;;5094479;28;20041;-85
2022/03/14 02:57:46;;;;;;;11.30;6.88;;;9.80;96.40;;;;;;5094692;28;20016;-85
2022/03/14 03:00:13;;;;;;;9.38;6.30;;;9.80;97.70;;;;;;5076196;28;20502;-85
2022/03/14 03:02:42;;;;;;;10.70;6.93;;;9.80;98.50;;;;;;5076199;28;20032;-86
2022/03/14 03:05:08;;;;;;;8.45;6.45;;;9.70;98.10;;;;;;5076242;28;20039;-85
2022/03/14 03:07:35;;;;;;;8.73;6.55;;;9.70;98.20;;;;;;5076012;28;20039;-86
2022/03/14 03:10:02;;;;;;;7.93;5.65;;;9.70;98.30;;;;;;5075967;28;20024;-85
2022/03/14 03:12:28;;;;;;;8.18;5.72;;;9.70;98.50;;;;;;5075980;28;20162;-85
2022/03/14 03:14:54;;;;;;;9.20;5.95;;;9.70;98.40;;;;;;5094083;28;20470;-85
2022/03/14 03:17:21;;;;;;;9.00;5.75;;;9.70;98.30;;;;;;5075913;28;20028;-85
2022/03/14 03:19:46;;;;;;;7.65;5.82;;;9.70;98.50;;;;;;5075491;28;20040;-86
2022/03/14 03:22:12;;;;;;;7.90;5.55;;;9.70;98.60;;;;;;5075781;28;20020;-85
2022/03/14 03:24:38;;;;;;;6.90;5.10;;;9.70;98.60;;;;;;5075092;28;20020;-85
2022/03/14 03:27:04;;;;;;;8.18;5.20;;;9.70;98.50;;;;;;5075833;28;20028;-86
2022/03/14 03:29:30;;;;;;;7.95;4.97;;;9.70;98.30;;;;;;5094163;28;20119;-85
2022/03/14 03:31:55;;;;;;;6.32;5.15;;;9.70;98.00;;;;;;5075651;28;20111;-86
2022/03/14 03:34:21;;;;;;;7.45;5.22;;;9.70;98.10;;;;;;5075659;28;20019;-86
2022/03/14 03:36:47;;;;;;;7.45;5.32;;;9.70;98.10;;;;;;5075497;28;20016;-86
2022/03/14 03:39:12;;;;;;;6.10;4.57;;;9.70;98.20;;;;;;5075622;28;20031;-86
2022/03/14 03:41:38;;;;;;;7.43;4.93;;;9.70;98.80;;;;;;5093650;28;20081;-86
2022/03/14 03:44:04;;;;;;;6.40;4.80;;;9.70;98.30;;;;;;5093876;28;20016;-85
2022/03/14 03:46:30;;;;;;;6.05;3.80;;;9.70;98.00;;;;;;5075338;28;20027;-85
2022/03/14 03:48:56;;;;;;;6.55;4.50;;;9.70;98.30;;;;;;5075378;28;20020;-85
2022/03/14 03:51:22;;;;;;;5.53;4.15;;;9.70;98.80;;;;;;5075395;28;20031;-86
2022/03/14 03:53:47;;;;;;;5.28;3.83;;;9.70;98.20;;;;;;5075297;28;20491;-86
2022/03/14 03:56:13;;;;;;;5.00;3.85;;;9.70;98.20;;;;;;5093436;28;20032;-85
2022/03/14 03:58:39;;;;;;;4.38;3.65;;;9.70;98.40;;;;;;5093668;28;20417;-85
2022/03/14 04:01:05;;;;;;;5.72;4.28;;;9.70;99.10;;;;;;5075057;28;20119;-86
2022/03/14 04:03:34;;;;;;;3.92;3.35;;;9.70;98.80;;;;;;5075176;28;20482;-86
2022/03/14 04:06:01;;;;;;;5.45;3.67;;;9.60;98.50;;;;;;5075130;28;20022;-86
2022/03/14 04:08:30;;;;;;;4.35;3.30;;;9.60;98.40;;;;;;5093234;28;20020;-85
2022/03/14 04:10:58;;;;;;;3.42;2.70;;;9.60;98.60;;;;;;5093104;28;20028;-86
2022/03/14 04:13:29;;;;;;;4.43;3.13;;;9.60;99.10;;;;;;5075048;28;20058;-85
2022/03/14 04:15:56;;;;;;;4.57;3.13;;;9.70;99.30;;;;;;5075176;28;20027;-85
2022/03/14 04:18:24;;;;;;;4.13;2.97;;;9.60;99.10;;;;;;5074984;28;20024;-86
2022/03/14 04:20:51;;;;;;;4.28;2.65;;;9.60;99.40;;;;;;5074869;28;20075;-86
2022/03/14 04:23:17;;;;;;;4.18;2.90;;;9.60;99.30;;;;;;5093010;28;20108;-86
2022/03/14 04:25:46;;;;;;;3.97;3.10;;;9.60;99.40;;;;;;5074876;28;20502;-86
2022/03/14 04:28:13;;;;;;;4.13;2.80;;;9.60;99.40;;;;;;5074884;28;20473;-85
2022/03/14 04:30:39;;;;;;;3.00;2.70;;;9.60;99.70;;;;;;5074957;28;20103;-85
2022/03/14 04:33:07;;;;;;;3.00;2.20;;;9.50;99.90;;;;;;5092951;28;20070;-85
2022/03/14 04:35:32;;;;;;;2.42;2.00;;;9.60;99.90;;;;;;5074882;28;20056;-86
2022/03/14 04:37:58;;;;;;;3.00;2.22;;;9.50;99.90;;;;;;5078738;28;20051;-86
2022/03/14 04:40:24;;;;;;;2.92;2.03;;;9.50;99.90;;;;;;5078927;28;20478;-85
2022/03/14 04:42:49;;;;;;;2.97;2.35;;;9.50;99.90;;;;;;5078945;28;20089;-86
2022/03/14 04:45:15;;;;;;;2.80;2.05;;;9.50;99.90;;;;;;5078942;28;20356;-86
2022/03/14 04:47:41;;;;;;;3.28;2.30;;;9.50;99.90;;;;;;5078856;28;20069;-86
2022/03/14 04:50:07;;;;;;;3.05;2.25;;;9.50;99.90;;;;;;5078715;28;20031;-87
2022/03/14 04:52:33;;;;;;;2.35;1.98;;;9.50;99.90;;;;;;5078685;28;20034;-86
2022/03/14 04:54:59;;;;;;;3.00;2.10;;;9.50;99.90;;;;;;5097011;28;20031;-86
2022/03/14 04:57:25;;;;;;;2.15;1.65;;;9.50;99.90;;;;;;5097030;28;20020;-84
2022/03/14 04:59:51;;;;;;;2.20;1.60;;;9.50;99.90;;;;;;5096653;28;20081;-86
2022/03/14 05:02:23;;;;;;;2.05;1.70;;;9.50;99.90;;;;;;5078413;28;20032;-86
2022/03/14 05:04:50;;;;;;;2.97;2.00;;;9.50;99.90;;;;;;5096875;28;20360;-86
2022/03/14 05:07:16;;;;;;;1.95;1.70;;;9.50;99.90;;;;;;5078330;28;20016;-85
2022/03/14 05:09:42;;;;;;;2.05;1.77;;;9.40;99.90;;;;;;5078243;28;20494;-86
2022/03/14 05:12:08;;;;;;;2.80;1.90;;;9.50;99.90;;;;;;5096432;28;20412;-86
2022/03/14 05:14:34;;;;;;;2.05;1.70;;;9.50;99.90;;;;;;5096668;28;20032;-86
2022/03/14 05:17:00;;;;;;;2.17;1.80;;;9.50;99.90;;;;;;5078392;28;20062;-86
2022/03/14 05:19:26;;;;;;;3.05;1.80;;;9.50;99.90;;;;;;5077854;28;20056;-87
2022/03/14 05:21:51;;;;;;;2.38;1.83;;;9.50;99.90;;;;;;5078177;28;20024;-86
2022/03/14 05:24:17;;;;;;;6.10;2.10;;;9.50;99.90;;;;;;5078164;28;20020;-86
2022/03/14 05:26:43;;;;;;;2.85;2.10;;;9.50;99.90;;;;;;5078077;28;20035;-86
2022/03/14 05:29:12;;;;;;;3.28;2.40;;;9.50;99.90;;;;;;5078014;28;20027;-86
2022/03/14 05:31:38;;;;;;;3.47;1.83;;;9.50;99.90;;;;;;5077914;28;20035;-86
2022/03/14 05:34:04;;;;;;;2.50;1.67;;;9.50;99.90;;;;;;5077905;28;20391;-85
2022/03/14 05:36:30;;;;;;;1.88;1.30;;;9.40;99.90;;;;;;5077832;28;20031;-85
2022/03/14 05:38:55;;;;;;;1.77;1.40;;;9.40;99.90;;;;;;5077762;28;20118;-86
2022/03/14 05:41:21;;;;;;;2.05;1.35;;;9.40;99.90;;;;;;5077752;28;20031;-85
2022/03/14 05:43:47;;;;;;;2.13;1.60;;;9.40;99.90;;;;;;5078003;28;20035;-86
2022/03/14 05:46:12;;;;;;;2.28;1.48;;;9.40;99.90;;;;;;5077912;28;20028;-86
2022/03/14 05:48:38;;;;;;;2.70;1.70;;;9.40;99.90;;;;;;5095190;28;20025;-86
2022/03/14 05:51:04;;;;;;;2.08;1.52;;;9.40;99.90;;;;;;5077701;28;20020;-86
2022/03/14 05:53:31;;;;;;;1.50;1.25;;;9.40;99.90;;;;;;5077980;28;20055;-86
2022/03/14 05:55:57;;;;;;;1.75;1.35;;;9.30;99.90;;;;;;5077882;28;20053;-86
2022/03/14 05:58:23;;;;;;;1.50;1.30;;;9.30;99.90;;;;;;5077590;28;20486;-86
2022/03/14 06:00:51;;;;;;;1.98;1.45;;;9.30;99.90;;;;;;5077418;28;20076;-86
2022/03/14 06:03:17;;;;;;;2.00;1.58;;;9.30;99.90;;;;;;5095712;28;20012;-86
2022/03/14 06:05:43;;;;;;;2.13;1.40;;;9.30;99.90;;;;;;5077537;28;20035;-86
2022/03/14 06:08:09;;;;;;;2.08;1.48;;;9.30;99.90;;;;;;5095592;28;20383;-86
2022/03/14 06:10:35;;;;;;;1.45;1.17;;;9.30;99.90;;;;;;5077502;28;20085;-86
2022/03/14 06:13:00;;;;;;;1.30;1.00;;;9.40;99.90;;;;;;5095595;28;20425;-86
2022/03/14 06:15:26;;;;;;;2.92;1.42;;;9.40;99.90;;;;;;5077463;28;20020;-86
2022/03/14 06:17:52;;;;;;;2.22;1.20;;;9.40;99.90;;;;;;5077348;28;20074;-86
2022/03/14 06:20:17;;;;;;;2.42;1.30;;;9.50;99.90;;;;;;5076966;28;20083;-85
2022/03/14 06:22:46;;;;;;;1.70;1.27;;;9.50;99.90;;;;;;5077408;28;20437;-86
2022/03/14 06:25:13;;;;;;;1.38;1.10;;;9.50;99.90;;;;;;5095322;28;20016;-86
2022/03/14 06:27:39;;;;;;;2.58;1.20;;;9.50;99.90;;;;;;5077029;28;20027;-86
2022/03/14 06:30:06;;;;;;;2.58;1.40;;;9.40;99.90;;;;;;5077029;28;20114;-86
2022/03/14 06:32:37;;;;;;;2.17;1.40;;;9.40;99.90;;;;;;5077679;28;20028;-86
2022/03/14 06:35:04;;;;;;;2.05;1.10;;;9.40;99.90;;;;;;5076953;28;20057;-86
2022/03/14 06:37:30;;;;;;;1.45;1.17;;;9.40;99.90;;;;;;5076825;28;20082;-86
2022/03/14 06:39:56;;;;;;;1.90;1.10;;;9.40;99.90;;;;;;5076596;28;20056;-86
2022/03/14 06:42:22;;;;;;;1.23;0.80;;;9.40;99.90;;;;;;5094825;28;20020;-86
2022/03/14 06:44:50;;;;;;;3.67;1.20;;;9.40;99.90;;;;;;5076918;28;20027;-86
2022/03/14 06:47:20;;;;;;;1.23;1.02;;;9.50;99.90;;;;;;5076680;28;20031;-86
2022/03/14 06:49:46;;;;;;;2.25;1.10;;;9.60;99.90;;;;;;5095006;28;20066;-86
2022/03/14 06:52:13;;;;;;;1.92;0.88;;;9.70;99.90;;;;;;5094880;28;20564;-85
2022/03/14 06:54:38;;;;;;;2.05;1.10;;;9.80;99.90;;;;;;5076919;28;20024;-86
2022/03/14 06:57:06;;;;;;;1.48;1.10;;;9.80;99.90;;;;;;5095194;28;20027;-86
2022/03/14 06:59:32;;;;;;;1.10;0.95;;;10.00;99.90;;;;;;5076260;28;20024;-86
2022/03/14 07:01:58;;;;;;;1.92;1.30;;;10.00;99.90;;;;;;5076906;28;20085;-86
2022/03/14 07:04:24;;;;;;;4.47;1.42;;;10.10;99.90;;;;;;5094904;28;20501;-86
2022/03/14 07:06:49;;;;;;;1.00;0.90;;;10.10;99.90;;;;;;5076365;28;20048;-86
2022/03/14 07:09:15;;;;;;;2.35;1.20;;;10.20;99.90;;;;;;5076347;28;20020;-86
2022/03/14 07:11:41;;;;;;;3.00;1.20;;;10.30;99.90;;;;;;5076311;28;20051;-86
2022/03/14 07:14:07;;;;;;;2.63;1.08;;;10.40;99.90;;;;;;5094457;28;20027;-85
2022/03/14 07:16:33;;;;;;;1.40;0.98;;;10.40;99.90;;;;;;5076121;28;20031;-85
2022/03/14 07:18:59;;;;;;;2.30;1.00;;;10.50;99.80;;;;;;5094278;28;20028;-86
2022/03/14 07:21:28;;;;;;;2.17;0.90;;;10.50;99.50;;;;;;5076050;28;20028;-86
2022/03/14 07:23:57;;;;;;;1.88;0.80;;;10.50;99.50;;;;;;5094124;28;20099;-85
2022/03/14 07:26:24;;;;;;;1.25;0.80;;;10.60;99.30;;;;;;5094239;28;20428;-85
2022/03/14 07:28:50;;;;;;;1.30;0.90;;;10.60;99.30;;;;;;5094264;28;20017;-85
2022/03/14 07:31:17;;;;;;;1.73;1.00;;;10.60;99.50;;;;;;5094084;28;20479;-86
2022/03/14 07:33:43;;;;;;;1.55;0.90;;;10.70;99.50;;;;;;5094068;28;20027;-86
2022/03/14 07:36:11;;;;;;;3.22;0.90;;;10.80;99.50;;;;;;5075719;28;20034;-85
2022/03/14 07:38:37;;;;;;;2.92;0.90;;;10.80;99.40;;;;;;5075596;28;20483;-85
2022/03/14 07:41:02;;;;;;;1.17;0.88;;;10.90;99.50;;;;;;5093807;28;20028;-86
2022/03/14 07:43:28;;;;;;;1.20;0.70;;;10.80;99.20;;;;;;5093702;28;20095;-86
2022/03/14 07:45:54;;;;;;;1.38;0.80;;;10.80;99.20;;;;;;5075639;28;20016;-85
2022/03/14 07:48:19;;;;;;;1.40;0.98;;;10.90;99.10;;;;;;5075457;28;20103;-86
2022/03/14 07:50:45;;;;;;;1.52;0.88;;;10.90;99.10;;;;;;5075423;28;20030;-86
2022/03/14 07:53:11;;;;;;;1.15;0.88;;;10.80;99.00;;;;;;5075322;28;20128;-86
2022/03/14 07:55:36;;;;;;;1.98;1.10;;;10.80;98.90;;;;;;5076306;28;20360;-86
2022/03/14 07:58:02;;;;;;;2.88;1.10;;;10.70;99.00;;;;;;5093490;28;20028;-86
2022/03/14 08:00:28;;;;;;;1.00;0.80;;;10.60;99.30;;;;;;5075351;28;20447;-86
2022/03/14 08:02:55;;;;;;;2.13;0.70;;;10.50;99.40;;;;;;5075464;28;20527;-86
2022/03/14 08:05:25;;;;;;;1.70;0.75;;;10.40;99.70;;;;;;5075275;28;20020;-86
2022/03/14 08:07:52;;;;;;;1.42;0.75;;;10.30;99.80;;;;;;5075240;28;20028;-85
2022/03/14 08:10:18;;;;;;;3.40;0.80;;;10.20;99.80;;;;;;5093393;28;20031;-86
2022/03/14 08:12:55;;;;;;;3.53;0.90;;;10.10;99.90;;;;;;5074994;28;20362;-86
2022/03/14 08:15:26;;;;;;;1.50;1.00;;;10.00;99.90;;;;;;5075378;28;20032;-85
2022/03/14 08:17:54;;;;;;;4.82;1.10;;;10.00;99.90;;;;;;5075321;28;20028;-86
2022/03/14 08:20:21;;;;;;;3.10;0.93;;;10.00;99.90;;;;;;5093023;28;20097;-85
2022/03/14 08:22:53;;;;;;;4.30;1.25;;;9.90;99.90;;;;;;5075560;28;20052;-86
2022/03/14 08:25:19;;;;;;;2.22;0.90;;;9.90;99.90;;;;;;5075909;28;20467;-86
2022/03/14 08:27:46;;;;;;;3.65;1.10;;;9.90;99.90;;;;;;5093148;28;20402;-85
2022/03/14 08:30:12;;;;;;;2.80;0.93;;;9.80;99.90;;;;;;5093576;28;20366;-86
2022/03/14 08:32:39;;;;;;;4.32;1.17;;;9.90;99.90;;;;;;5074931;28;20024;-83
2022/03/14 08:35:09;;;;;;;4.30;1.10;;;10.00;99.90;;;;;;5075211;28;20044;-85
2022/03/14 08:37:39;;;;;;;1.58;0.93;;;10.00;99.90;;;;;;5093771;28;20086;-85
2022/03/14 08:40:09;;;;;;;1.83;0.98;;;10.00;99.90;;;;;;5075414;28;20456;-85
2022/03/14 08:42:35;;;;;;;2.35;1.02;;;10.00;99.90;;;;;;5075360;28;20027;-85
2022/03/14 08:45:02;;;;;;;3.92;1.00;;;10.20;99.90;;;;;;5093002;28;20027;-85
2022/03/14 08:47:27;;;;;;;3.30;1.00;;;10.20;99.90;;;;;;5093089;28;20020;-82
2022/03/14 08:49:53;;;;;;;3.50;1.00;;;10.30;99.90;;;;;;5093263;28;20103;-85
2022/03/14 08:52:19;;;;;;;1.42;0.82;;;10.30;99.80;;;;;;5075104;28;20020;-84
2022/03/14 08:54:44;;;;;;;3.08;1.10;;;10.50;99.50;;;;;;5075039;28;20034;-86
2022/03/14 08:57:10;;;;;;;2.25;0.80;;;10.60;99.30;;;;;;5093055;28;20387;-85
2022/03/14 08:59:36;;;;;;;3.25;1.02;;;10.80;99.20;;;;;;5093048;28;20017;-85
2022/03/14 09:02:02;;;;;;;3.88;0.93;;;10.90;98.90;;;;;;5093010;28;20052;-85
2022/03/14 09:04:30;;;;;;;3.30;1.02;;;11.00;98.60;;;;;;5075415;28;20024;-86
2022/03/14 09:06:55;;;;;;;4.50;0.80;;;11.10;98.40;;;;;;5092936;28;20027;-85
2022/03/14 09:09:22;;;;;;;3.63;0.90;;;11.20;98.20;;;;;;5093125;28;20464;-85
2022/03/14 09:11:47;;;;;;;3.55;1.05;;;11.30;98.00;;;;;;5074833;28;20036;-84
2022/03/14 09:14:13;;;;;;;4.43;1.27;;;11.40;98.00;;;;;;5074964;28;20036;-85
2022/03/14 09:16:39;;;;;;;3.90;1.00;;;11.40;97.80;;;;;;5074955;28;20124;-83
2022/03/14 09:19:04;;;;;;;2.55;0.95;;;11.40;97.70;;;;;;5074759;28;20471;-85
2022/03/14 09:21:32;;;;;;;3.85;0.90;;;11.40;97.70;;;;;;5074864;28;20119;-85
2022/03/14 09:23:58;;;;;;;3.10;1.13;;;11.40;97.60;;;;;;5076874;28;20016;-85
2022/03/14 09:26:24;;;;;;;5.68;1.20;;;11.50;97.60;;;;;;5078526;28;20020;-85
2022/03/14 09:28:50;;;;;;;5.13;0.93;;;11.50;97.60;;;;;;5078506;28;20024;-84
2022/03/14 09:31:16;;;;;;;2.88;1.02;;;11.50;97.60;;;;;;5096623;28;20486;-85
2022/03/14 09:33:41;;;;;;;2.75;1.00;;;11.50;97.50;;;;;;5078334;28;20028;-85
2022/03/14 09:36:07;;;;;;;3.88;0.98;;;11.50;97.40;;;;;;5078237;28;20024;-84
2022/03/14 09:38:33;;;;;;;4.80;1.15;;;11.60;97.30;;;;;;5078305;28;20028;-85
2022/03/14 09:41:04;;;;;;;4.50;0.95;;;11.60;97.20;;;;;;5078182;28;20402;-86
2022/03/14 09:43:39;;;;;;;2.00;1.00;;;11.60;97.20;;;;;;5096544;28;20097;-85
2022/03/14 09:46:07;;;;;;;2.90;1.10;;;11.50;97.10;;;;;;5078112;28;20050;-85
2022/03/14 09:48:36;;;;;;;3.42;1.30;;;11.60;97.00;;;;;;5078008;28;20028;-85
2022/03/14 09:51:04;;;;;;;2.30;0.85;;;11.70;96.90;;;;;;5096510;28;20531;-85
2022/03/14 09:53:32;;;;;;;2.95;1.25;;;11.70;96.70;;;;;;5077956;28;20348;-85
2022/03/14 09:55:57;;;;;;;3.17;1.00;;;11.80;96.70;;;;;;5078090;28;20088;-84
2022/03/14 09:58:23;;;;;;;5.25;1.00;;;11.90;96.60;;;;;;5077835;28;20031;-83
2022/03/14 10:00:50;;;;;;;6.30;1.23;;;11.90;96.40;;;;;;5095782;28;20062;-83
2022/03/14 10:03:17;;;;;;;3.13;0.93;;;12.00;96.30;;;;;;5077921;28;20021;-83
2022/03/14 10:05:44;;;;;;;5.43;1.10;;;12.10;96.20;;;;;;5077414;28;20110;-83
2022/03/14 10:08:14;;;;;;;2.85;1.00;;;12.10;96.00;;;;;;5077392;28;20047;-83
2022/03/14 10:10:40;;;;;;;3.28;0.82;;;12.10;95.80;;;;;;5095726;28;20020;-83
2022/03/14 10:13:07;;;;;;;2.45;1.00;;;12.20;95.80;;;;;;5077464;28;20072;-84
2022/03/14 10:15:37;;;;;;;2.10;1.00;;;12.20;95.80;;;;;;5077494;28;20387;-83
2022/03/14 10:18:10;;;;;;;3.28;1.15;;;12.20;95.70;;;;;;5077412;28;20028;-83
2022/03/14 10:20:36;;;;;;;4.13;1.10;;;12.10;95.70;;;;;;5076875;28;20055;-83
2022/03/14 10:23:01;;;;;;;3.50;1.13;;;12.10;95.80;;;;;;5076985;28;20391;-83
2022/03/14 10:25:29;;;;;;;4.45;1.08;;;12.00;95.90;;;;;;5077213;28;20024;-83
2022/03/14 10:27:57;;;;;;;3.17;0.82;;;11.90;95.90;;;;;;5077244;28;20028;-83
2022/03/14 10:30:33;;;;;;;3.65;1.13;;;11.80;96.00;;;;;;5095318;28;20096;-84
2022/03/14 10:33:08;;;;;;;3.28;0.90;;;11.70;96.10;;;;;;5077178;28;20035;-84
2022/03/14 10:35:36;;;;;;;4.20;0.88;;;11.70;95.90;;;;;;5076743;28;20443;-83
2022/03/14 10:38:06;;;;;;;3.00;0.95;;;11.60;96.10;;;;;;5095047;28;20016;-83
2022/03/14 10:40:35;;;;;;;3.90;0.80;;;11.50;96.20;;;;;;5076963;28;20120;-84
2022/03/14 10:43:01;;;;;;;3.60;1.05;;;11.40;96.30;;;;;;5076956;28;20024;-83
2022/03/14 10:45:30;;;;;;;3.22;1.08;;;11.40;96.30;;;;;;5077267;28;20028;-84
2022/03/14 10:47:57;;;;;;;3.08;1.00;;;11.40;96.30;;;;;;5076793;28;20031;-82
2022/03/14 10:50:33;;;;;;;5.28;1.00;;;11.50;96.30;;;;;;5095040;28;20446;-83
2022/03/14 10:53:16;;;;;;;2.72;0.80;;;11.60;96.00;;;;;;5076228;28;20495;-83
2022/03/14 10:55:48;;;;;;;3.90;0.90;;;11.80;95.80;;;;;;5076665;28;20028;-83
2022/03/14 10:58:15;;;;;;;3.22;0.88;;;11.90;95.60;;;;;;5076551;28;20108;-83
2022/03/14 11:00:48;;;;;;;4.00;0.90;;;12.00;95.40;;;;;;5094699;28;20029;-85
2022/03/14 11:03:34;;;;;;;4.68;1.10;;;12.00;95.30;;;;;;5094576;28;20175;-83
2022/03/14 11:06:04;;;;;;;2.13;0.82;;;12.20;95.60;;;;;;5076360;28;20028;-81
2022/03/14 11:08:35;;;;;;;2.88;0.82;;;12.30;95.00;;;;;;5094610;28;20016;-84
2022/03/14 11:11:07;;;;;;;3.28;1.00;;;12.30;94.80;;;;;;5094861;28;20028;-84
2022/03/14 11:13:46;;;;;;;5.68;1.13;;;12.30;94.80;;;;;;5094253;28;20027;-83
2022/03/14 11:16:24;;;;;;;3.53;0.90;;;12.40;94.90;;;;;;5094501;28;20024;-84
2022/03/14 11:18:50;;;;;;;2.67;0.80;;;12.40;94.80;;;;;;5094504;28;20100;-83
2022/03/14 11:21:19;;;;;;;1.67;0.63;;;12.50;94.70;;;;;;5075823;28;20503;-84
2022/03/14 11:23:47;;;;;;;2.35;0.93;;;12.60;94.70;;;;;;5076107;28;20031;-83
2022/03/14 11:26:19;;;;;;;2.05;0.85;;;12.60;94.60;;;;;;5094428;28;20229;-84
2022/03/14 11:28:47;;;;;;;4.03;1.33;;;12.60;94.90;;;;;;5075844;28;20016;-83
2022/03/14 11:31:13;;;;;;;4.03;1.00;;;12.50;94.50;;;;;;5094034;28;20368;-83
2022/03/14 11:33:41;;;;;;;3.08;0.90;;;12.60;94.60;;;;;;5094168;28;20027;-84
2022/03/14 11:36:07;;;;;;;3.58;0.88;;;12.60;94.60;;;;;;5094350;28;20462;-83
2022/03/14 11:38:34;;;;;;;3.13;1.05;;;12.60;94.60;;;;;;5075548;28;20035;-84
2022/03/14 11:41:01;;;;;;;1.95;0.88;;;12.60;94.60;;;;;;5075621;28;20038;-83
2022/03/14 11:43:28;;;;;;;2.75;0.75;;;12.60;94.60;;;;;;5093941;28;20383;-84
2022/03/14 11:45:55;;;;;;;2.80;0.90;;;12.60;94.60;;;;;;5075074;28;20142;-84
2022/03/14 11:48:23;;;;;;;2.65;0.90;;;12.60;94.60;;;;;;5093484;28;20016;-83
2022/03/14 11:50:48;;;;;;;3.33;1.00;;;12.60;94.50;;;;;;5093786;28;20360;-83
2022/03/14 11:53:22;;;;;;;2.67;0.93;;;12.60;94.50;;;;;;5093983;28;20035;-84
2022/03/14 11:55:59;;;;;;;3.30;0.90;;;12.70;94.40;;;;;;5075647;28;20028;-84
2022/03/14 11:58:49;;;;;;;5.55;0.98;;;12.70;94.40;;;;;;5075299;28;20131;-84
2022/03/14 12:01:28;;;;;;;2.80;0.80;;;12.70;94.40;;;;;;5075285;28;20031;-84
2022/03/14 12:03:59;;;;;;;2.22;0.75;;;12.70;94.40;;;;;;5075585;28;20024;-84
2022/03/14 12:06:43;;;;;;;2.53;0.85;;;12.70;94.40;;;;;;5075443;28;20020;-84
2022/03/14 12:09:09;;;;;;;3.53;0.85;;;12.80;94.30;;;;;;5075315;28;20028;-84
2022/03/14 12:11:40;;;;;;;2.45;0.68;;;12.80;94.30;;;;;;5075158;28;20024;-84
2022/03/14 12:14:09;;;;;;;3.15;0.90;;;12.80;94.20;;;;;;5075392;28;20024;-83
2022/03/14 12:16:45;;;;;;;3.50;0.70;;;12.90;94.20;;;;;;5075251;28;20073;-83
2022/03/14 12:19:27;;;;;;;1.88;0.57;;;13.00;94.10;;;;;;5074848;28;20028;-84
2022/03/14 12:21:54;;;;;;;1.98;0.68;;;13.00;94.00;;;;;;5093316;28;20471;-84
2022/03/14 12:24:45;;;;;;;2.58;1.10;;;13.00;93.90;;;;;;5075542;28;20107;-84
2022/03/14 12:27:19;;;;;;;2.72;0.80;;;13.10;93.80;;;;;;5093406;28;20445;-84
2022/03/14 12:29:46;;;;;;;2.28;0.77;;;13.10;94.10;;;;;;5075221;28;20024;-83
2022/03/14 12:32:37;;;;;;;1.17;0.65;;;13.20;93.70;;;;;;5074745;28;20039;-84
2022/03/14 12:35:04;;;;;;;2.00;0.70;;;13.20;93.60;;;;;;5074754;28;20020;-83
2022/03/14 12:37:49;;;;;;;2.53;0.70;;;13.30;93.50;;;;;;5074574;28;20042;-84
2022/03/14 12:40:21;;;;;;;2.08;0.65;;;13.40;93.50;;;;;;5074655;28;20052;-84
2022/03/14 12:42:49;;;;;;;1.85;0.60;;;13.40;93.30;;;;;;5074672;28;20022;-83
2022/03/14 12:45:16;;;;;;;2.42;0.70;;;13.50;93.10;;;;;;5074607;28;20071;-83
2022/03/14 12:47:48;;;;;;;1.20;0.50;;;13.50;93.10;;;;;;5074808;28;20024;-82
2022/03/14 12:50:43;;;;;;;2.40;0.70;;;13.50;92.90;;;;;;5092919;28;20111;-84